createdAt,value
2023-09-08T00:04:53.931Z,9.68
2023-09-08T00:09:55.641Z,10.70
2023-09-08T00:14:57.138Z,8.73
2023-09-08T00:19:59.169Z,7.07
2023-09-08T00:25:00.693Z,13.27
2023-09-08T00:30:03.266Z,11.20
2023-09-08T00:35:09.115Z,15.57
2023-09-08T00:40:11.141Z,11.93
2023-09-08T00:45:12.782Z,7.35
2023-09-08T00:50:14.416Z,10.75
2023-09-08T00:55:15.993Z,10.05
2023-09-08T01:00:17.966Z,6.88
2023-09-08T01:05:20.507Z,8.18
2023-09-08T01:10:22.419Z,7.85
2023-09-08T01:15:24.075Z,9.13
2023-09-08T01:20:31.255Z,10.05
2023-09-08T01:25:36.308Z,12.73
2023-09-08T01:30:38.386Z,12.20
2023-09-08T01:35:39.929Z,9.55
2023-09-08T01:40:41.389Z,10.13
2023-09-08T01:45:42.996Z,8.57
2023-09-08T01:50:44.657Z,9.38
2023-09-08T01:55:46.682Z,12.15
2023-09-08T02:00:54.613Z,13.23
2023-09-08T02:05:56.196Z,9.88
2023-09-08T02:10:57.694Z,9.80
2023-09-08T02:15:59.248Z,10.73
2023-09-08T02:21:00.868Z,15.43
2023-09-08T02:26:03.660Z,17.70
2023-09-08T02:31:05.283Z,10.02
2023-09-08T02:36:07.213Z,10.20
2023-09-08T02:41:08.937Z,9.52
2023-09-08T02:46:10.691Z,12.98
2023-09-08T02:51:13.296Z,9.45
2023-09-08T02:56:14.776Z,12.32
2023-09-08T03:01:20.453Z,12.75
2023-09-08T03:06:22.349Z,13.00
2023-09-08T03:11:23.852Z,17.20
2023-09-08T03:16:25.383Z,13.07
2023-09-08T03:21:26.974Z,17.42
2023-09-08T03:26:28.476Z,10.57
2023-09-08T03:31:30.100Z,16.55
2023-09-08T03:36:32.182Z,16.27
2023-09-08T03:41:33.748Z,14.57
2023-09-08T03:46:35.411Z,16.10
2023-09-08T03:51:36.999Z,13.15
2023-09-08T03:56:38.511Z,13.13
2023-09-08T04:01:40.114Z,11.60
2023-09-08T04:06:42.581Z,12.38
2023-09-08T04:11:44.072Z,13.48
2023-09-08T04:16:45.562Z,10.40
2023-09-08T04:21:47.084Z,10.98
2023-09-08T04:26:48.568Z,10.40
2023-09-08T04:31:50.154Z,14.68
2023-09-08T04:36:51.646Z,11.38
2023-09-08T04:41:53.160Z,13.43
2023-09-08T04:46:54.753Z,13.70
2023-09-08T04:51:56.369Z,11.07
2023-09-08T04:57:11.677Z,13.15
2023-09-08T05:02:19.940Z,16.38
2023-09-08T05:07:21.585Z,13.52
2023-09-08T05:12:23.139Z,14.27
2023-09-08T05:17:25.324Z,15.32
2023-09-08T05:22:26.802Z,14.45
2023-09-08T05:27:28.346Z,14.13
2023-09-08T05:32:29.961Z,12.05
2023-09-08T05:37:31.518Z,10.65
2023-09-08T05:42:33.093Z,15.40
2023-09-08T05:47:36.529Z,12.93
2023-09-08T05:52:38.076Z,14.57
2023-09-08T05:57:39.875Z,11.43
2023-09-08T06:02:41.552Z,10.45
2023-09-08T06:07:53.754Z,18.73
2023-09-08T06:13:02.836Z,15.02
2023-09-08T06:18:04.856Z,15.57
2023-09-08T06:23:06.384Z,12.30
2023-09-08T06:28:07.955Z,13.57
2023-09-08T06:33:10.227Z,16.35
2023-09-08T06:38:11.801Z,19.77
2023-09-08T06:43:13.279Z,10.88
2023-09-08T06:48:14.804Z,14.68
2023-09-08T06:53:16.360Z,11.52
2023-09-08T06:58:17.809Z,12.50
2023-09-08T07:03:19.532Z,14.20
2023-09-08T07:08:21.193Z,13.13
2023-09-08T07:13:22.876Z,14.27
2023-09-08T07:18:24.543Z,14.40
2023-09-08T07:23:26.051Z,12.98
2023-09-08T07:28:28.381Z,12.18
2023-09-08T07:33:29.884Z,21.77
2023-09-08T07:38:31.438Z,12.98
2023-09-08T07:43:33.026Z,11.80
2023-09-08T07:48:34.982Z,14.25
2023-09-08T07:53:36.803Z,16.08
2023-09-08T07:58:39.930Z,14.55
2023-09-08T08:03:41.478Z,10.77
2023-09-08T08:08:43.020Z,13.77
2023-09-08T08:13:44.869Z,15.80
2023-09-08T08:18:46.501Z,12.07
2023-09-08T08:23:48.111Z,16.63
2023-09-08T08:28:49.553Z,13.95
2023-09-08T08:33:51.082Z,13.32
2023-09-08T08:38:52.557Z,16.25
2023-09-08T08:43:54.829Z,20.08
2023-09-08T08:48:57.287Z,18.40
2023-09-08T08:53:58.851Z,15.13
2023-09-08T08:59:02.529Z,17.77
2023-09-08T09:04:06.710Z,16.52
2023-09-08T09:09:09.542Z,16.00
2023-09-08T09:14:11.077Z,15.85
2023-09-08T09:19:28.366Z,16.92
2023-09-08T09:24:47.579Z,13.30
2023-09-08T09:29:51.055Z,12.65
2023-09-08T09:34:54.887Z,16.85
2023-09-08T09:39:56.699Z,16.50
2023-09-08T09:44:58.500Z,17.75
2023-09-08T09:50:01.003Z,17.58
2023-09-08T09:55:03.070Z,17.25
2023-09-08T10:00:07.141Z,20.05
2023-09-08T10:05:14.053Z,17.73
2023-09-08T10:10:17.143Z,19.30
2023-09-08T10:15:22.421Z,15.25
2023-09-08T10:20:29.789Z,15.37
2023-09-08T10:25:36.541Z,16.92
2023-09-08T10:30:38.448Z,18.27
2023-09-08T10:35:41.365Z,13.90
2023-09-08T10:40:42.901Z,17.88
2023-09-08T10:45:44.763Z,15.30
2023-09-08T10:50:46.306Z,15.18
2023-09-08T10:56:10.654Z,19.77
2023-09-08T11:01:18.316Z,15.50
2023-09-08T11:11:22.493Z,16.23
2023-09-08T11:16:30.517Z,19.65
2023-09-08T11:21:35.880Z,17.83
2023-09-08T11:26:38.636Z,14.80
2023-09-08T11:31:40.348Z,12.63
2023-09-08T11:36:42.814Z,16.40
2023-09-08T11:41:44.371Z,21.20
2023-09-08T11:46:48.081Z,19.05
2023-09-08T11:51:50.532Z,14.82
2023-09-08T11:56:53.103Z,16.10
2023-09-08T12:01:54.640Z,18.92
2023-09-08T12:06:59.427Z,17.40
2023-09-08T12:12:03.970Z,15.80
2023-09-08T12:17:09.011Z,15.40
2023-09-08T12:22:13.221Z,20.63
2023-09-08T12:27:16.074Z,17.08
2023-09-08T12:32:17.680Z,15.07
2023-09-08T12:37:24.208Z,21.20
2023-09-08T12:42:30.475Z,13.30
2023-09-08T12:47:33.978Z,13.32
2023-09-08T12:52:35.544Z,13.73
2023-09-08T12:57:37.752Z,17.42
2023-09-08T13:02:39.421Z,10.57
2023-09-08T13:07:40.975Z,14.73
2023-09-08T13:12:43.809Z,9.38
2023-09-08T13:17:45.629Z,9.25
2023-09-08T13:22:47.238Z,6.35
2023-09-08T13:27:49.269Z,7.78
2023-09-08T13:32:51.101Z,9.32
2023-09-08T13:37:52.674Z,7.88
2023-09-08T13:42:54.328Z,7.70
2023-09-08T13:47:56.800Z,10.75
2023-09-08T13:52:59.489Z,9.13
2023-09-08T13:58:02.492Z,5.57
2023-09-08T14:03:06.998Z,11.07
2023-09-08T14:08:17.546Z,8.80
2023-09-08T14:13:20.558Z,8.43
2023-09-08T14:18:22.207Z,7.28
2023-09-08T14:23:23.739Z,9.90
2023-09-08T14:28:25.323Z,7.28
2023-09-08T14:33:27.241Z,8.45
2023-09-08T14:38:28.793Z,9.93
2023-09-08T14:43:30.900Z,8.35
2023-09-08T14:48:32.876Z,6.70
2023-09-08T14:53:34.622Z,9.75
2023-09-08T14:58:37.132Z,11.02
2023-09-08T15:03:39.319Z,11.52
2023-09-08T15:08:43.912Z,9.52
2023-09-08T15:13:45.505Z,7.95
2023-09-08T15:18:48.945Z,12.40
2023-09-08T15:23:50.429Z,10.75
2023-09-08T15:28:51.930Z,10.85
2023-09-08T15:33:53.537Z,110.72
2023-09-08T15:38:55.143Z,14.55
2023-09-08T15:43:56.931Z,8.82
2023-09-08T15:48:58.529Z,9.48
2023-09-08T15:54:00.686Z,9.13
2023-09-08T15:59:02.295Z,9.35
2023-09-08T16:04:07.706Z,9.07
2023-09-08T16:09:09.283Z,9.35
2023-09-08T16:14:10.758Z,10.00
2023-09-08T16:19:12.322Z,10.82
2023-09-08T16:24:14.032Z,14.98
2023-09-08T16:29:15.519Z,12.45
2023-09-08T16:34:17.062Z,8.07
2023-09-08T16:39:18.613Z,10.55
2023-09-08T16:44:20.214Z,10.98
2023-09-08T16:49:23.349Z,14.75
2023-09-08T16:54:24.969Z,13.23
2023-09-08T16:59:26.454Z,14.82
2023-09-08T17:04:29.111Z,16.40
2023-09-08T17:09:31.006Z,11.23
2023-09-08T17:14:32.561Z,14.70
2023-09-08T17:19:34.077Z,22.00
2023-09-08T17:24:35.579Z,21.75
2023-09-08T17:29:37.093Z,21.92
2023-09-08T17:34:38.570Z,25.45
2023-09-08T17:39:40.162Z,36.08
2023-09-08T17:44:41.693Z,26.95
2023-09-08T17:49:43.946Z,30.65
2023-09-08T17:54:45.525Z,30.40
2023-09-08T17:59:47.037Z,25.95
2023-09-08T18:04:48.625Z,26.48
2023-09-08T18:09:51.326Z,26.45
2023-09-08T18:14:54.407Z,24.42
2023-09-08T18:19:56.045Z,21.80
2023-09-08T18:24:58.094Z,23.50
2023-09-08T18:29:59.544Z,37.72
2023-09-08T18:35:01.206Z,24.38
2023-09-08T18:40:04.444Z,35.05
2023-09-08T18:45:06.545Z,29.67
2023-09-08T18:50:08.373Z,22.90
2023-09-08T18:55:09.888Z,24.25
2023-09-08T19:00:12.161Z,21.95
2023-09-08T19:05:13.759Z,26.08
2023-09-08T19:10:15.339Z,26.77
2023-09-08T19:15:18.349Z,21.05
2023-09-08T19:20:19.902Z,25.13
2023-09-08T19:25:21.428Z,23.40
2023-09-08T19:30:22.975Z,23.23
2023-09-08T19:35:27.407Z,22.27
2023-09-08T19:40:29.102Z,20.25
2023-09-08T19:45:32.259Z,21.90
2023-09-08T19:50:33.743Z,28.48
2023-09-08T19:55:35.791Z,31.50
2023-09-08T20:00:37.315Z,28.20
2023-09-08T20:05:44.699Z,22.15
2023-09-08T20:10:53.927Z,25.25
2023-09-08T20:16:08.381Z,23.23
2023-09-08T20:21:10.865Z,20.33
2023-09-08T20:26:12.498Z,23.73
2023-09-08T20:31:16.851Z,23.65
2023-09-08T20:36:19.321Z,22.77
2023-09-08T20:41:20.901Z,39.40
2023-09-08T20:46:22.513Z,29.42
2023-09-08T20:51:24.096Z,29.73
2023-09-08T20:56:25.583Z,30.45
2023-09-08T21:01:28.163Z,22.90
2023-09-08T21:06:29.696Z,25.05
2023-09-08T21:11:31.767Z,40.95
2023-09-08T21:16:33.386Z,26.33
2023-09-08T21:21:34.949Z,24.98
2023-09-08T21:26:36.586Z,23.65
2023-09-08T21:31:38.142Z,33.92
2023-09-08T21:36:39.864Z,25.23
2023-09-08T21:41:41.643Z,31.65
2023-09-08T21:46:43.167Z,28.48
2023-09-08T21:51:48.225Z,27.05
2023-09-08T21:56:49.769Z,24.15
2023-09-08T22:01:51.262Z,23.25
2023-09-08T22:06:53.895Z,23.98
2023-09-08T22:11:55.481Z,22.73
2023-09-08T22:16:56.967Z,23.75
2023-09-08T22:21:58.476Z,22.45
2023-09-08T22:27:00.119Z,19.70
2023-09-08T22:32:01.644Z,21.13
2023-09-08T22:37:03.650Z,22.15
2023-09-08T22:42:05.404Z,23.60
2023-09-08T22:47:11.364Z,21.40
2023-09-08T22:52:12.930Z,22.63
2023-09-08T22:57:14.455Z,27.38
2023-09-08T23:02:16.029Z,32.67
2023-09-08T23:07:17.607Z,30.23
2023-09-08T23:12:19.067Z,35.45
2023-09-08T23:17:20.511Z,32.25
2023-09-08T23:22:22.098Z,35.38
2023-09-08T23:27:24.074Z,40.65
2023-09-08T23:32:25.641Z,45.17
2023-09-08T23:37:27.327Z,42.25
2023-09-08T23:42:28.876Z,48.67
2023-09-08T23:47:30.404Z,60.55
2023-09-08T23:52:31.944Z,65.63
2023-09-08T23:57:33.517Z,81.13
